Time;durP1;ratioP1;P1;durP2;ratioP2;P2;SDS_P1;SDS_P2;PMS_P1;PMS_P2;Temp;Humidity;BMP_temperature;BMP_pressure;BME280_temperature;BME280_humidity;BME280_pressure;Samples;Min_cycle;Max_cycle;Signal;HPM_P1;HPM_P2
2023/04/15 00:01:05;;;;;;;0.80;0.50;;;10.10;99.90;;;;;;4984846;28;20235;-75
2023/04/15 00:03:34;;;;;;;0.50;0.40;;;10.10;99.90;;;;;;4984967;28;20281;-73
2023/04/15 00:06:02;;;;;;;0.60;0.40;;;10.10;99.90;;;;;;4981696;28;20728;-75
2023/04/15 00:08:30;;;;;;;0.60;0.45;;;10.00;99.90;;;;;;4988326;28;20617;-74
2023/04/15 00:11:01;;;;;;;0.60;0.40;;;10.00;99.90;;;;;;4987867;28;20209;-74
2023/04/15 00:13:30;;;;;;;0.65;0.55;;;9.90;99.90;;;;;;4978651;28;20202;-74
2023/04/15 00:15:59;;;;;;;0.60;0.50;;;9.80;99.90;;;;;;4979556;28;20227;-74
2023/04/15 00:18:28;;;;;;;0.93;0.50;;;9.90;99.90;;;;;;4980105;28;20204;-74
2023/04/15 00:20:56;;;;;;;0.93;0.73;;;9.90;99.90;;;;;;4983491;28;20308;-74
2023/04/15 00:23:24;;;;;;;1.13;0.50;;;9.80;99.90;;;;;;4983364;28;20237;-75
2023/04/15 00:25:52;;;;;;;0.80;0.70;;;9.80;99.90;;;;;;4978970;28;20231;-75
2023/04/15 00:28:19;;;;;;;0.73;0.63;;;9.80;99.90;;;;;;4979835;28;20241;-74
2023/04/15 00:30:47;;;;;;;0.60;0.40;;;9.90;99.90;;;;;;4979129;28;20680;-74
2023/04/15 00:33:17;;;;;;;0.60;0.50;;;9.90;99.90;;;;;;4980863;28;20202;-74
2023/04/15 00:35:45;;;;;;;0.60;0.50;;;9.90;99.90;;;;;;4991968;28;20698;-72
2023/04/15 00:38:12;;;;;;;2.75;1.02;;;9.90;99.90;;;;;;4985890;28;20212;-75
2023/04/15 00:40:41;;;;;;;0.60;0.50;;;10.00;99.90;;;;;;4990739;28;20249;-74
2023/04/15 00:43:09;;;;;;;0.70;0.50;;;9.90;99.90;;;;;;4994640;28;20216;-75
2023/04/15 00:45:37;;;;;;;0.60;0.40;;;9.80;99.90;;;;;;4993429;28;20229;-75
2023/04/15 00:48:05;;;;;;;0.57;0.40;;;9.70;99.90;;;;;;4991300;28;20216;-74
2023/04/15 00:50:35;;;;;;;0.85;0.52;;;9.70;99.90;;;;;;4994907;28;20220;-75
2023/04/15 00:53:03;;;;;;;0.60;0.40;;;9.70;99.90;;;;;;4993730;28;20264;-75
2023/04/15 00:55:31;;;;;;;0.60;0.50;;;9.60;99.90;;;;;;4994512;28;20229;-75
2023/04/15 00:57:59;;;;;;;1.17;0.47;;;9.50;99.90;;;;;;4994332;28;20237;-75
2023/04/15 01:00:27;;;;;;;0.75;0.70;;;9.40;99.90;;;;;;4994516;28;20277;-75
2023/04/15 01:02:55;;;;;;;0.60;0.40;;;9.40;99.90;;;;;;4994309;28;20293;-75
2023/04/15 01:05:24;;;;;;;0.60;0.60;;;9.40;99.90;;;;;;4985365;28;20223;-74
2023/04/15 01:07:53;;;;;;;0.60;0.50;;;9.40;99.90;;;;;;4997102;28;20303;-74
2023/04/15 01:10:21;;;;;;;0.80;0.50;;;9.40;99.90;;;;;;4990733;28;20746;-74
2023/04/15 01:12:49;;;;;;;0.60;0.50;;;9.30;99.90;;;;;;4993973;28;20292;-74
2023/04/15 01:15:17;;;;;;;0.57;0.40;;;9.20;99.90;;;;;;4994294;28;20216;-74
2023/04/15 01:17:45;;;;;;;0.60;0.50;;;9.10;99.90;;;;;;4993244;28;20292;-72
2023/04/15 01:20:14;;;;;;;0.60;0.47;;;9.00;99.90;;;;;;4992009;28;20222;-74
2023/04/15 01:22:42;;;;;;;0.60;0.40;;;9.00;99.90;;;;;;4987316;28;20633;-72
2023/04/15 01:25:17;;;;;;;0.70;0.60;;;9.00;99.90;;;;;;4983749;28;20227;-74
2023/04/15 01:27:46;;;;;;;0.60;0.50;;;8.90;99.90;;;;;;4983386;28;20197;-76
2023/04/15 01:30:14;;;;;;;0.73;0.52;;;9.00;99.90;;;;;;4982735;28;20256;-74
2023/04/15 01:32:42;;;;;;;0.80;0.77;;;9.00;99.90;;;;;;4984531;28;20322;-73
2023/04/15 01:35:10;;;;;;;0.70;0.60;;;9.00;99.90;;;;;;4989639;28;20277;-75
2023/04/15 01:37:38;;;;;;;0.63;0.50;;;9.00;99.90;;;;;;4986514;28;20288;-75
2023/04/15 01:40:07;;;;;;;0.70;0.60;;;9.00;99.90;;;;;;4985119;28;20225;-74
2023/04/15 01:42:36;;;;;;;0.60;0.40;;;9.10;99.90;;;;;;4986271;28;20226;-74
2023/04/15 01:45:07;;;;;;;0.60;0.50;;;9.10;99.90;;;;;;4986563;28;21800;-75
2023/04/15 01:47:34;;;;;;;0.60;0.50;;;9.20;99.90;;;;;;4989477;28;20216;-74
2023/04/15 01:50:03;;;;;;;0.80;0.40;;;9.20;99.90;;;;;;4987574;28;20198;-75
2023/04/15 01:52:31;;;;;;;1.23;0.65;;;9.20;99.90;;;;;;4984991;28;20230;-76
2023/04/15 01:54:58;;;;;;;0.73;0.60;;;9.20;99.90;;;;;;4985312;28;20225;-77
2023/04/15 01:57:26;;;;;;;0.60;0.43;;;9.20;99.90;;;;;;4988718;28;20626;-75
2023/04/15 01:59:54;;;;;;;0.60;0.50;;;9.20;99.90;;;;;;4985738;28;20207;-75
2023/04/15 02:02:24;;;;;;;0.60;0.55;;;9.30;99.90;;;;;;4984269;28;20224;-75
2023/04/15 02:04:52;;;;;;;0.60;0.50;;;9.20;99.90;;;;;;4984519;28;20248;-77
2023/04/15 02:07:20;;;;;;;0.60;0.40;;;9.10;99.90;;;;;;4981189;28;20272;-75
2023/04/15 02:09:48;;;;;;;0.63;0.50;;;9.10;99.90;;;;;;4987568;28;20285;-76
2023/04/15 02:12:16;;;;;;;0.88;0.50;;;8.90;99.90;;;;;;4985970;28;20338;-76
2023/04/15 02:14:44;;;;;;;0.93;0.63;;;8.90;99.90;;;;;;4988270;28;20287;-74
2023/04/15 02:17:12;;;;;;;0.60;0.45;;;8.80;99.90;;;;;;4982036;28;20317;-73
2023/04/15 02:19:41;;;;;;;0.60;0.50;;;8.80;99.90;;;;;;4983904;28;20291;-74
2023/04/15 02:22:10;;;;;;;0.85;0.60;;;8.80;99.90;;;;;;4984767;28;20224;-74
2023/04/15 02:24:38;;;;;;;0.50;0.40;;;8.80;99.90;;;;;;4982904;28;20210;-74
2023/04/15 02:27:05;;;;;;;0.60;0.50;;;8.90;99.90;;;;;;4979367;28;20345;-74
2023/04/15 02:29:33;;;;;;;0.70;0.50;;;9.00;99.90;;;;;;4982455;28;20212;-74
2023/04/15 02:32:01;;;;;;;0.60;0.43;;;8.90;99.90;;;;;;4984453;28;20282;-74
2023/04/15 02:34:30;;;;;;;0.70;0.60;;;8.90;99.90;;;;;;4986689;28;20263;-74
2023/04/15 02:36:59;;;;;;;0.60;0.40;;;8.90;99.90;;;;;;4985313;28;20225;-74
2023/04/15 02:39:27;;;;;;;0.60;0.50;;;8.90;99.90;;;;;;4986785;28;20213;-75
2023/04/15 02:41:57;;;;;;;0.60;0.52;;;8.80;99.90;;;;;;4977008;28;20248;-73
2023/04/15 02:44:26;;;;;;;2.22;0.50;;;8.80;99.90;;;;;;4985278;28;20235;-76
2023/04/15 02:46:54;;;;;;;0.60;0.50;;;8.80;99.90;;;;;;4983438;28;20650;-75
2023/04/15 02:49:22;;;;;;;0.93;0.85;;;8.80;99.90;;;;;;4984914;28;20212;-75
2023/04/15 02:51:50;;;;;;;0.93;0.50;;;8.80;99.90;;;;;;4983126;28;20229;-76
2023/04/15 02:54:21;;;;;;;0.75;0.68;;;8.80;99.90;;;;;;4982991;28;20223;-76
2023/04/15 02:56:49;;;;;;;0.60;0.50;;;9.00;99.90;;;;;;4987231;28;20232;-76
2023/04/15 02:59:17;;;;;;;1.00;0.50;;;8.70;99.90;;;;;;4982838;28;20206;-74
2023/04/15 03:01:45;;;;;;;0.70;0.52;;;8.50;99.90;;;;;;4987516;28;20737;-74
2023/04/15 03:04:13;;;;;;;0.70;0.70;;;8.30;99.90;;;;;;4984288;28;20290;-74
2023/04/15 03:06:41;;;;;;;0.68;0.60;;;8.00;99.90;;;;;;4989550;28;20252;-74
2023/04/15 03:09:09;;;;;;;0.70;0.60;;;7.90;99.90;;;;;;4983914;28;20304;-74
2023/04/15 03:11:40;;;;;;;0.60;0.45;;;7.90;99.90;;;;;;4985645;28;20281;-72
2023/04/15 03:14:08;;;;;;;0.80;0.60;;;8.00;99.90;;;;;;4983256;28;20212;-71
2023/04/15 03:16:36;;;;;;;1.17;0.68;;;8.00;99.90;;;;;;4985371;28;20650;-75
2023/04/15 03:19:04;;;;;;;0.68;0.50;;;8.10;99.90;;;;;;4981507;28;20379;-75
2023/04/15 03:21:31;;;;;;;0.95;0.68;;;8.20;99.90;;;;;;4982794;28;20264;-75
2023/04/15 03:23:59;;;;;;;0.60;0.50;;;8.20;99.90;;;;;;4985884;28;20265;-75
2023/04/15 03:26:28;;;;;;;0.90;0.60;;;8.20;99.90;;;;;;4984687;28;20509;-75
2023/04/15 03:28:58;;;;;;;0.60;0.50;;;8.30;99.90;;;;;;4978990;28;20307;-75
2023/04/15 03:31:26;;;;;;;0.60;0.50;;;8.40;99.90;;;;;;4985604;28;20201;-75
2023/04/15 03:33:54;;;;;;;0.70;0.60;;;8.50;99.90;;;;;;4985127;28;20202;-75
2023/04/15 03:36:22;;;;;;;0.80;0.50;;;8.60;99.90;;;;;;4987643;28;20340;-75
2023/04/15 03:38:50;;;;;;;1.42;0.60;;;8.70;99.90;;;;;;4984242;28;20266;-72
2023/04/15 03:41:18;;;;;;;1.17;0.90;;;8.70;99.90;;;;;;4981722;28;20237;-75
2023/04/15 03:43:45;;;;;;;0.70;0.55;;;8.80;99.90;;;;;;4982816;28;20220;-74
2023/04/15 03:46:15;;;;;;;0.70;0.57;;;8.80;99.90;;;;;;4982755;28;20592;-75
2023/04/15 03:48:43;;;;;;;0.60;0.50;;;8.70;99.90;;;;;;4983447;28;20730;-75
2023/04/15 03:51:11;;;;;;;0.60;0.50;;;8.80;99.90;;;;;;4985596;28;20210;-74
2023/04/15 03:53:39;;;;;;;0.70;0.70;;;8.80;99.90;;;;;;4981621;28;20268;-75
2023/04/15 03:56:07;;;;;;;1.08;0.68;;;8.80;99.90;;;;;;4982885;28;20227;-74
2023/04/15 03:58:35;;;;;;;0.60;0.50;;;8.80;99.90;;;;;;4979340;28;20220;-74
2023/04/15 04:01:03;;;;;;;0.60;0.40;;;8.80;99.90;;;;;;4981829;28;20292;-74
2023/04/15 04:03:32;;;;;;;0.77;0.60;;;8.80;99.90;;;;;;4983795;28;20288;-74
2023/04/15 04:06:00;;;;;;;0.57;0.47;;;8.70;99.90;;;;;;4982619;28;20242;-74
2023/04/15 04:08:28;;;;;;;0.70;0.60;;;8.40;99.90;;;;;;4984491;28;20702;-73
2023/04/15 04:10:56;;;;;;;0.80;0.70;;;8.10;99.90;;;;;;4982482;28;20206;-74
2023/04/15 04:13:24;;;;;;;0.60;0.50;;;7.90;99.90;;;;;;4984082;28;20212;-73
2023/04/15 04:15:52;;;;;;;0.70;0.55;;;7.90;99.90;;;;;;4983184;28;20396;-72
2023/04/15 04:18:20;;;;;;;0.68;0.50;;;7.90;99.90;;;;;;4983795;28;20238;-74
2023/04/15 04:20:49;;;;;;;0.60;0.50;;;8.00;99.90;;;;;;4982826;28;20770;-74
2023/04/15 04:23:17;;;;;;;2.70;1.52;;;8.10;99.90;;;;;;4982644;28;20232;-74
2023/04/15 04:25:45;;;;;;;0.60;0.50;;;8.10;99.90;;;;;;4981284;28;20228;-74
2023/04/15 04:28:13;;;;;;;0.70;0.70;;;8.20;99.90;;;;;;4983444;28;20256;-76
2023/04/15 04:30:41;;;;;;;0.90;0.55;;;8.30;99.90;;;;;;4984333;28;20720;-73
2023/04/15 04:33:09;;;;;;;0.70;0.65;;;8.40;99.90;;;;;;4984655;28;20728;-74
2023/04/15 04:35:36;;;;;;;0.60;0.50;;;8.40;99.90;;;;;;4980928;28;20316;-75
2023/04/15 04:38:06;;;;;;;0.60;0.50;;;8.40;99.90;;;;;;4986232;28;20237;-74
2023/04/15 04:40:34;;;;;;;0.80;0.60;;;8.50;99.90;;;;;;4990850;28;20578;-75
2023/04/15 04:43:02;;;;;;;1.27;1.17;;;8.50;99.90;;;;;;4989497;28;20601;-74
2023/04/15 04:45:30;;;;;;;0.80;0.70;;;8.50;99.90;;;;;;4990422;28;20309;-73
2023/04/15 04:47:58;;;;;;;0.63;0.63;;;8.50;99.90;;;;;;4990543;28;20921;-73
2023/04/15 04:50:26;;;;;;;0.77;0.65;;;8.50;99.90;;;;;;4989682;28;20284;-72
2023/04/15 04:52:53;;;;;;;0.63;0.50;;;8.50;99.90;;;;;;4990921;28;20202;-75
2023/04/15 04:55:23;;;;;;;0.60;0.50;;;8.50;99.90;;;;;;4980640;28;20238;-75
2023/04/15 04:57:51;;;;;;;0.80;0.57;;;8.50;99.90;;;;;;4987280;28;20224;-75
2023/04/15 05:00:19;;;;;;;0.70;0.60;;;8.40;99.90;;;;;;4990296;28;20268;-75
2023/04/15 05:02:47;;;;;;;0.60;0.50;;;8.50;99.90;;;;;;4990578;28;20226;-75
2023/04/15 05:05:15;;;;;;;1.52;0.73;;;8.60;99.90;;;;;;4988539;28;20620;-74
2023/04/15 05:07:43;;;;;;;0.68;0.60;;;8.70;99.90;;;;;;5097769;23;20326;-76
2023/04/15 05:10:11;;;;;;;0.60;0.50;;;8.70;99.90;;;;;;4988157;28;20302;-74
2023/04/15 05:12:40;;;;;;;1.17;0.60;;;8.70;99.90;;;;;;4990920;28;20644;-73
2023/04/15 05:15:09;;;;;;;0.52;0.40;;;8.80;99.90;;;;;;4990845;28;20235;-73
2023/04/15 05:17:37;;;;;;;0.50;0.40;;;8.90;99.90;;;;;;4990638;28;20233;-73
2023/04/15 05:20:06;;;;;;;1.00;0.50;;;8.80;99.90;;;;;;4991730;28;20218;-72
2023/04/15 05:22:34;;;;;;;0.60;0.50;;;8.80;99.90;;;;;;4988694;28;20323;-75
2023/04/15 05:25:02;;;;;;;0.60;0.50;;;8.80;99.90;;;;;;4988423;28;20300;-73
2023/04/15 05:27:30;;;;;;;0.60;0.50;;;8.80;99.90;;;;;;4990829;28;20349;-74
2023/04/15 05:29:59;;;;;;;0.95;0.50;;;8.70;99.90;;;;;;4989160;28;20298;-73
2023/04/15 05:32:27;;;;;;;0.65;0.45;;;8.70;99.90;;;;;;4989417;28;20649;-79
2023/04/15 05:34:55;;;;;;;0.80;0.50;;;8.80;99.90;;;;;;4989575;28;20206;-76
2023/04/15 05:37:22;;;;;;;0.60;0.50;;;8.80;99.90;;;;;;4986265;28;20239;-75
2023/04/15 05:39:51;;;;;;;0.50;0.40;;;8.80;99.90;;;;;;4989242;28;20244;-73
2023/04/15 05:42:18;;;;;;;0.70;0.50;;;8.80;99.90;;;;;;4987735;28;20253;-73
2023/04/15 05:44:46;;;;;;;0.60;0.40;;;8.70;99.90;;;;;;4990816;28;20210;-73
2023/04/15 05:47:15;;;;;;;0.57;0.43;;;8.80;99.90;;;;;;4990959;28;20296;-73
2023/04/15 05:49:43;;;;;;;0.60;0.50;;;8.80;99.90;;;;;;4988800;28;20221;-74
2023/04/15 05:52:11;;;;;;;0.60;0.50;;;8.70;99.90;;;;;;4988295;28;20203;-75
2023/04/15 05:54:39;;;;;;;0.70;0.70;;;8.70;99.90;;;;;;4988462;28;20245;-77
2023/04/15 05:57:07;;;;;;;0.60;0.45;;;8.80;99.90;;;;;;4989069;28;20313;-75
2023/04/15 05:59:35;;;;;;;0.70;0.55;;;8.90;99.90;;;;;;4987520;28;20797;-73
2023/04/15 06:02:03;;;;;;;0.68;0.50;;;9.10;99.90;;;;;;4989020;28;20220;-75
2023/04/15 06:04:32;;;;;;;0.60;0.60;;;9.10;99.90;;;;;;4989528;28;20202;-75
2023/04/15 06:07:00;;;;;;;0.50;0.40;;;9.20;99.90;;;;;;4985529;28;20234;-75
2023/04/15 06:09:28;;;;;;;1.13;0.50;;;9.30;99.90;;;;;;4986991;28;20228;-78
2023/04/15 06:11:57;;;;;;;0.77;0.77;;;9.30;99.90;;;;;;4989868;28;20666;-76
2023/04/15 06:14:25;;;;;;;0.60;0.60;;;9.30;99.90;;;;;;4990177;28;20216;-74
2023/04/15 06:16:52;;;;;;;0.60;0.50;;;9.40;99.90;;;;;;4989635;28;20229;-77
2023/04/15 06:19:20;;;;;;;0.70;0.60;;;9.50;99.90;;;;;;4987865;28;20208;-75
2023/04/15 06:21:50;;;;;;;0.60;0.50;;;9.50;99.90;;;;;;4987811;28;20285;-73
2023/04/15 06:24:18;;;;;;;0.85;0.70;;;9.40;99.90;;;;;;4989841;28;20301;-74
2023/04/15 06:26:45;;;;;;;1.13;0.50;;;9.40;99.90;;;;;;4991353;28;20240;-75
2023/04/15 06:29:13;;;;;;;0.60;0.47;;;9.40;99.90;;;;;;4986103;28;20202;-78
2023/04/15 06:31:41;;;;;;;0.57;0.40;;;9.40;99.90;;;;;;4991156;28;20206;-76
2023/04/15 06:34:10;;;;;;;0.60;0.50;;;9.40;99.90;;;;;;4990509;28;20596;-74
2023/04/15 06:36:37;;;;;;;0.70;0.50;;;9.50;99.90;;;;;;4992345;28;20280;-74
2023/04/15 06:39:07;;;;;;;0.68;0.57;;;9.60;99.90;;;;;;4986869;28;20218;-76
2023/04/15 06:41:35;;;;;;;0.60;0.50;;;9.70;99.90;;;;;;4993231;28;20695;-77
2023/04/15 06:44:04;;;;;;;0.70;0.50;;;9.80;99.90;;;;;;4992115;28;20236;-75
2023/04/15 06:46:31;;;;;;;0.82;0.65;;;9.80;99.90;;;;;;4992620;28;20256;-75
2023/04/15 06:48:59;;;;;;;0.60;0.50;;;9.80;99.90;;;;;;4992847;28;20208;-74
2023/04/15 06:51:27;;;;;;;0.70;0.60;;;9.90;99.90;;;;;;4987143;28;20213;-73
2023/04/15 06:53:55;;;;;;;0.90;0.50;;;9.90;99.90;;;;;;4992280;28;20206;-73
2023/04/15 06:56:25;;;;;;;1.45;0.82;;;9.80;99.90;;;;;;4991800;28;20272;-74
2023/04/15 06:58:54;;;;;;;0.60;0.50;;;9.80;99.90;;;;;;4992360;28;20221;-76
2023/04/15 07:01:22;;;;;;;2.55;1.23;;;9.80;99.90;;;;;;4992150;28;20307;-76
2023/04/15 07:03:50;;;;;;;0.60;0.50;;;9.80;99.90;;;;;;4997830;28;20225;-76
2023/04/15 07:06:18;;;;;;;0.75;0.75;;;9.80;99.90;;;;;;5002627;28;20275;-75
2023/04/15 07:08:46;;;;;;;0.82;0.60;;;9.90;99.90;;;;;;5002160;28;20646;-75
2023/04/15 07:11:14;;;;;;;3.25;1.02;;;9.90;99.90;;;;;;4998611;28;20216;-72
2023/04/15 07:13:43;;;;;;;1.42;1.05;;;9.90;99.90;;;;;;4995854;28;20289;-73
2023/04/15 07:16:11;;;;;;;0.88;0.70;;;9.90;99.90;;;;;;4996904;28;20261;-71
2023/04/15 07:18:39;;;;;;;1.65;1.40;;;9.70;99.90;;;;;;4995415;28;20210;-72
2023/04/15 07:21:07;;;;;;;1.35;0.80;;;9.70;99.90;;;;;;4996820;28;20248;-72
2023/04/15 07:23:35;;;;;;;0.95;0.82;;;9.90;99.90;;;;;;4998257;28;20233;-72
2023/04/15 07:26:03;;;;;;;0.90;0.82;;;10.20;99.90;;;;;;5004438;28;20213;-74
2023/04/15 07:28:31;;;;;;;1.00;0.85;;;10.30;99.90;;;;;;4997556;28;20234;-73
2023/04/15 07:31:00;;;;;;;1.60;0.98;;;10.50;99.90;;;;;;4995385;28;20213;-72
2023/04/15 07:33:29;;;;;;;1.02;0.93;;;10.60;99.90;;;;;;4981480;28;20229;-73
2023/04/15 07:35:57;;;;;;;0.80;0.77;;;10.80;99.90;;;;;;4991393;28;20224;-72
2023/04/15 07:38:26;;;;;;;0.80;0.63;;;11.00;99.90;;;;;;4996631;28;20283;-73
2023/04/15 07:40:54;;;;;;;1.30;0.95;;;11.10;99.90;;;;;;4988809;28;20289;-73
2023/04/15 07:43:22;;;;;;;0.75;0.70;;;11.30;99.90;;;;;;4987706;28;20241;-74
2023/04/15 07:45:49;;;;;;;0.63;0.50;;;11.40;99.90;;;;;;4989626;28;20285;-72
2023/04/15 07:48:19;;;;;;;0.60;0.55;;;11.50;99.90;;;;;;4986978;28;20207;-73
2023/04/15 07:50:48;;;;;;;0.82;0.75;;;11.80;99.90;;;;;;4987359;28;20292;-72
2023/04/15 07:53:16;;;;;;;0.60;0.60;;;12.00;99.90;;;;;;4988218;28;20205;-73
2023/04/15 07:55:43;;;;;;;0.68;0.50;;;12.20;99.90;;;;;;4995024;28;20209;-73
2023/04/15 07:58:11;;;;;;;2.10;0.85;;;12.30;99.90;;;;;;4992996;28;20300;-73
2023/04/15 08:00:39;;;;;;;0.70;0.60;;;12.40;99.90;;;;;;4991713;28;20288;-73
2023/04/15 08:03:07;;;;;;;0.90;0.52;;;12.20;99.90;;;;;;4989428;28;20237;-73
2023/04/15 08:05:37;;;;;;;0.60;0.50;;;12.10;99.90;;;;;;4994283;28;20229;-73
2023/04/15 08:08:04;;;;;;;1.05;0.95;;;12.20;99.90;;;;;;4993340;28;20312;-73
2023/04/15 08:10:32;;;;;;;0.70;0.63;;;12.20;99.90;;;;;;4990519;28;20675;-72
2023/04/15 08:13:01;;;;;;;0.70;0.60;;;12.40;99.90;;;;;;4991706;28;20289;-73
2023/04/15 08:15:28;;;;;;;0.80;0.70;;;12.50;99.90;;;;;;4986453;28;20659;-73
2023/04/15 08:17:56;;;;;;;0.80;0.80;;;12.50;99.90;;;;;;4985572;28;20320;-73
2023/04/15 08:20:24;;;;;;;0.80;0.80;;;12.50;99.90;;;;;;4984652;28;20201;-73
2023/04/15 08:22:53;;;;;;;0.82;0.57;;;12.40;99.90;;;;;;4985339;28;20671;-73
2023/04/15 08:25:21;;;;;;;0.85;0.63;;;12.50;99.90;;;;;;4983490;28;20301;-73
2023/04/15 08:27:49;;;;;;;0.60;0.60;;;12.50;99.90;;;;;;4985431;28;20317;-72
2023/04/15 08:30:18;;;;;;;1.08;0.98;;;12.60;99.90;;;;;;4985976;28;20222;-72
2023/04/15 08:32:46;;;;;;;0.82;0.50;;;12.70;99.90;;;;;;4988822;28;20292;-71
2023/04/15 08:35:14;;;;;;;0.60;0.50;;;12.90;99.90;;;;;;4989779;28;20300;-73
2023/04/15 08:37:42;;;;;;;0.63;0.63;;;13.20;99.90;;;;;;4997615;28;20230;-71
2023/04/15 08:40:12;;;;;;;1.02;0.70;;;13.00;99.90;;;;;;4993823;28;20617;-71
2023/04/15 08:42:44;;;;;;;0.88;0.63;;;13.00;99.90;;;;;;4994377;28;20620;-73
2023/04/15 08:45:12;;;;;;;0.63;0.47;;;13.30;99.90;;;;;;4990531;28;20225;-72
2023/04/15 08:47:44;;;;;;;0.60;0.40;;;13.70;99.90;;;;;;4998058;28;20317;-71
2023/04/15 08:50:14;;;;;;;0.60;0.45;;;13.90;99.90;;;;;;5000105;28;20202;-71
2023/04/15 08:52:42;;;;;;;0.50;0.40;;;14.10;99.90;;;;;;5000410;28;20563;-71
2023/04/15 08:55:13;;;;;;;1.40;0.70;;;14.20;99.90;;;;;;4999385;28;20226;-69
2023/04/15 08:57:41;;;;;;;0.50;0.40;;;14.20;99.90;;;;;;4997067;28;20323;-69
2023/04/15 09:00:11;;;;;;;0.60;0.40;;;14.20;99.90;;;;;;5001339;28;20216;-69
2023/04/15 09:02:39;;;;;;;0.60;0.40;;;14.20;99.90;;;;;;5005523;28;20225;-69
2023/04/15 09:05:08;;;;;;;2.17;1.02;;;14.30;99.90;;;;;;5000879;28;20591;-71
2023/04/15 09:07:36;;;;;;;0.60;0.50;;;14.50;99.90;;;;;;5004036;28;20249;-70
2023/04/15 09:10:05;;;;;;;0.60;0.43;;;14.50;99.90;;;;;;5002151;28;20209;-70
2023/04/15 09:12:36;;;;;;;0.70;0.70;;;14.50;99.90;;;;;;4998448;28;20549;-69
2023/04/15 09:15:04;;;;;;;0.50;0.40;;;14.30;99.90;;;;;;5000015;28;20212;-69
2023/04/15 09:17:33;;;;;;;0.57;0.40;;;14.30;99.90;;;;;;4996405;28;20303;-69
2023/04/15 09:20:09;;;;;;;3.72;0.60;;;14.20;99.90;;;;;;4999140;28;20685;-69
2023/04/15 09:22:38;;;;;;;0.60;0.40;;;14.10;99.90;;;;;;4996152;28;20213;-69
2023/04/15 09:25:26;;;;;;;0.50;0.40;;;14.20;99.90;;;;;;4995955;28;20213;-68
2023/04/15 09:27:56;;;;;;;0.57;0.43;;;14.40;99.90;;;;;;4997148;28;20744;-69
2023/04/15 09:30:25;;;;;;;0.73;0.70;;;14.50;99.90;;;;;;4997176;28;20725;-69
2023/04/15 09:32:54;;;;;;;0.50;0.40;;;14.70;99.90;;;;;;4996677;28;20288;-69
2023/04/15 09:35:24;;;;;;;0.50;0.40;;;14.90;99.90;;;;;;4995911;28;20198;-68
2023/04/15 09:37:53;;;;;;;0.80;0.77;;;15.00;99.90;;;;;;4998910;28;20252;-69
2023/04/15 09:40:34;;;;;;;0.50;0.30;;;15.20;99.90;;;;;;4993541;28;20206;-69
2023/04/15 09:43:04;;;;;;;0.63;0.63;;;15.40;99.90;;;;;;4983375;28;20233;-71
2023/04/15 09:45:33;;;;;;;0.50;0.40;;;15.40;96.90;;;;;;4985238;28;20356;-72
2023/04/15 09:48:18;;;;;;;0.57;0.38;;;15.30;96.60;;;;;;4993111;28;20222;-70
2023/04/15 09:50:47;;;;;;;0.50;0.30;;;15.00;93.80;;;;;;4981471;28;20217;-70
2023/04/15 09:53:19;;;;;;;0.50;0.30;;;15.00;93.60;;;;;;4991130;28;20288;-70
2023/04/15 09:55:50;;;;;;;0.50;0.30;;;15.30;95.40;;;;;;4985934;28;20551;-71
2023/04/15 09:58:22;;;;;;;0.50;0.40;;;15.20;93.60;;;;;;4993499;28;20284;-71
2023/04/15 10:00:51;;;;;;;0.77;0.55;;;15.20;93.90;;;;;;4993128;28;20708;-72
2023/04/15 10:03:21;;;;;;;0.50;0.40;;;15.10;94.80;;;;;;4981529;28;20309;-70
2023/04/15 10:05:51;;;;;;;0.50;0.40;;;15.00;93.70;;;;;;4988512;28;20230;-70
2023/04/15 10:08:20;;;;;;;0.50;0.30;;;15.10;94.50;;;;;;4981254;28;20242;-70
2023/04/15 10:10:50;;;;;;;0.60;0.30;;;15.20;92.30;;;;;;4989177;28;20292;-71
2023/04/15 10:13:22;;;;;;;0.50;0.30;;;15.00;91.00;;;;;;4972670;28;20214;-70
2023/04/15 10:15:52;;;;;;;0.50;0.40;;;14.80;90.60;;;;;;4985475;28;20232;-70
2023/04/15 10:18:22;;;;;;;0.60;0.40;;;14.50;91.10;;;;;;4980736;28;20217;-72
2023/04/15 10:20:51;;;;;;;0.50;0.40;;;14.50;91.70;;;;;;4981593;28;20304;-71
2023/04/15 10:23:20;;;;;;;0.60;0.40;;;14.30;91.40;;;;;;4988558;28;20216;-71
2023/04/15 10:25:49;;;;;;;0.60;0.40;;;14.10;91.50;;;;;;4981576;28;20314;-70
2023/04/15 10:28:17;;;;;;;0.50;0.30;;;13.90;92.70;;;;;;4988618;28;20228;-71
2023/04/15 10:30:48;;;;;;;0.50;0.30;;;13.90;93.80;;;;;;4988281;28;20241;-73
2023/04/15 10:33:19;;;;;;;0.50;0.40;;;13.90;93.80;;;;;;4980769;28;20214;-73
2023/04/15 10:35:49;;;;;;;0.50;0.40;;;13.80;93.80;;;;;;4981032;28;20297;-71
2023/04/15 10:38:34;;;;;;;0.50;0.30;;;14.00;95.20;;;;;;4986072;28;20293;-72
2023/04/15 10:41:17;;;;;;;0.50;0.30;;;14.00;94.50;;;;;;4994323;28;20296;-71
2023/04/15 10:43:52;;;;;;;1.25;0.60;;;14.00;93.60;;;;;;4990853;28;20293;-71
2023/04/15 10:46:24;;;;;;;0.50;0.30;;;13.90;94.90;;;;;;4989282;28;20729;-72
2023/04/15 10:48:53;;;;;;;0.50;0.40;;;13.90;95.30;;;;;;4992504;28;20210;-70
2023/04/15 10:51:31;;;;;;;0.50;0.40;;;14.00;96.00;;;;;;4989604;28;20309;-71
2023/04/15 10:54:00;;;;;;;0.50;0.30;;;14.00;94.90;;;;;;4990783;28;20292;-70
2023/04/15 10:56:30;;;;;;;0.50;0.30;;;14.20;96.40;;;;;;4993120;28;20225;-70
2023/04/15 10:59:00;;;;;;;0.50;0.40;;;14.40;95.20;;;;;;4995336;28;20209;-71
2023/04/15 11:01:55;;;;;;;0.50;0.40;;;14.70;95.90;;;;;;4990543;28;20842;-71
2023/04/15 11:04:51;;;;;;;0.50;0.30;;;15.00;95.30;;;;;;4991549;28;20213;-70
2023/04/15 11:07:37;;;;;;;0.65;0.63;;;15.30;96.00;;;;;;4987434;28;20271;-72
2023/04/15 11:10:48;;;;;;;0.50;0.30;;;15.40;95.40;;;;;;4989067;28;20758;-69
2023/04/15 11:13:20;;;;;;;0.50;0.30;;;15.40;94.70;;;;;;4971696;28;20310;-73
2023/04/15 11:15:49;;;;;;;0.70;0.40;;;15.50;93.90;;;;;;4995157;28;20284;-71
2023/04/15 11:18:19;;;;;;;0.57;0.38;;;15.30;94.90;;;;;;4989323;28;20315;-72
2023/04/15 11:20:49;;;;;;;0.50;0.40;;;15.40;94.50;;;;;;4988433;28;20229;-72
2023/04/15 11:23:18;;;;;;;0.50;0.40;;;15.30;93.50;;;;;;4982037;28;20244;-72
2023/04/15 11:25:47;;;;;;;0.50;0.30;;;15.30;94.20;;;;;;5009783;23;20300;-73
2023/04/15 11:28:15;;;;;;;0.50;0.30;;;15.20;94.50;;;;;;4986027;28;20217;-73
2023/04/15 11:30:43;;;;;;;0.60;0.40;;;15.10;94.20;;;;;;4981326;28;20830;-73
2023/04/15 11:33:12;;;;;;;0.50;0.30;;;15.10;94.80;;;;;;4981015;28;20576;-73
2023/04/15 11:35:42;;;;;;;0.50;0.40;;;15.00;94.90;;;;;;4980732;28;20317;-74
2023/04/15 11:38:12;;;;;;;0.60;0.40;;;15.20;96.70;;;;;;4983426;28;20209;-73
2023/04/15 11:40:41;;;;;;;0.50;0.40;;;15.30;95.50;;;;;;4984494;28;20305;-74
2023/04/15 11:43:15;;;;;;;0.70;0.50;;;15.40;95.60;;;;;;4981264;28;20209;-74
2023/04/15 11:45:52;;;;;;;0.60;0.40;;;15.40;95.30;;;;;;4978923;28;20272;-73
2023/04/15 11:48:22;;;;;;;0.50;0.40;;;15.30;95.60;;;;;;4982203;28;20213;-72
2023/04/15 11:50:55;;;;;;;0.50;0.30;;;15.30;96.10;;;;;;4981697;28;20284;-74
2023/04/15 11:53:24;;;;;;;0.60;0.40;;;15.10;97.30;;;;;;4978582;28;20304;-74
2023/04/15 11:55:53;;;;;;;0.50;0.40;;;14.80;97.80;;;;;;4978808;28;20221;-71
2023/04/15 11:58:23;;;;;;;0.50;0.30;;;14.70;98.00;;;;;;4976819;28;20344;-74
2023/04/15 12:00:52;;;;;;;0.50;0.40;;;14.50;99.20;;;;;;4980496;28;20214;-71
2023/04/15 12:03:23;;;;;;;0.50;0.30;;;14.20;99.90;;;;;;4983973;28;20209;-72
2023/04/15 12:06:17;;;;;;;0.60;0.40;;;13.80;99.90;;;;;;4981445;28;20234;-72
2023/04/15 12:09:00;;;;;;;0.50;0.40;;;13.50;99.90;;;;;;4980216;28;20210;-72
2023/04/15 12:11:31;;;;;;;0.50;0.30;;;13.40;99.90;;;;;;4980633;28;20217;-73
2023/04/15 12:14:04;;;;;;;0.50;0.40;;;13.30;99.90;;;;;;4977869;28;20260;-69
2023/04/15 12:16:36;;;;;;;0.50;0.30;;;13.10;99.90;;;;;;4984229;28;20339;-73
2023/04/15 12:19:18;;;;;;;0.50;0.30;;;13.10;99.90;;;;;;4977748;28;20218;-72
2023/04/15 12:21:48;;;;;;;0.90;0.50;;;13.10;99.90;;;;;;4978205;28;20206;-72
2023/04/15 12:24:21;;;;;;;0.50;0.30;;;13.20;99.90;;;;;;4980865;28;20305;-72
2023/04/15 12:26:50;;;;;;;0.60;0.40;;;13.10;99.90;;;;;;4982119;28;20244;-71
2023/04/15 12:29:18;;;;;;;0.50;0.30;;;13.00;99.90;;;;;;4982562;28;20202;-70
2023/04/15 12:31:49;;;;;;;0.50;0.30;;;12.90;99.90;;;;;;4981544;28;20846;-71
2023/04/15 12:34:18;;;;;;;0.50;0.30;;;12.80;99.90;;;;;;4980208;28;20205;-71
2023/04/15 12:36:48;;;;;;;0.50;0.30;;;12.70;99.90;;;;;;4982715;28;20920;-72
2023/04/15 12:39:15;;;;;;;0.50;0.40;;;12.80;99.90;;;;;;4980354;28;20237;-73
2023/04/15 12:41:43;;;;;;;0.50;0.30;;;12.80;99.90;;;;;;4980287;28;20203;-73
2023/04/15 12:44:11;;;;;;;0.50;0.40;;;12.70;99.90;;;;;;4986178;28;20293;-72
2023/04/15 12:46:40;;;;;;;0.50;0.30;;;12.80;99.90;;;;;;4983515;28;20321;-73
2023/04/15 12:49:13;;;;;;;0.50;0.40;;;12.90;99.90;;;;;;4980684;28;20210;-72
2023/04/15 12:51:41;;;;;;;0.60;0.47;;;13.00;99.90;;;;;;4989162;28;20313;-72
2023/04/15 12:54:10;;;;;;;0.60;0.40;;;13.00;99.90;;;;;;4976698;28;20273;-73
2023/04/15 12:56:38;;;;;;;0.50;0.40;;;12.90;99.90;;;;;;4983265;28;20236;-73
2023/04/15 12:59:06;;;;;;;0.60;0.40;;;12.70;99.90;;;;;;4983043;28;20324;-73
2023/04/15 13:01:34;;;;;;;0.60;0.40;;;12.60;99.90;;;;;;4985073;28;20202;-73
2023/04/15 13:04:02;;;;;;;0.50;0.30;;;12.50;99.90;;;;;;4986244;28;20206;-74